M I D A S
Marine Information and Data Acquisition System
Tripno 719 of the Zeeleeuw from 2004-05-18 06:12:13 to 2004-05-18 12:34:22
Back to CruiseResearch ActivitiesStationsMapUnderway DataData graphs

EquipmentUnitsComment
TimeDGPSUTC
LatitudeDGPSDM.mWGS84
LongitudeDGPSDM.mWGS84
TemperatureSBE03/SBE38deg celciusITS90
ConductivitySBE21S/mITS90
SalinitySBE21 Practical Salinity Units
ChlorophylAChelsea fluorimeterg/lCalibrated in Aceton
Missing or incorrect values are displayed as -999
Sea surface data collected by the RV Zeeleeuw from 2004-05-18 06:12:13 to 2004-05-18 12:34:22
Time Latitude Longitude Temperature Conductivity Salinity ChlorophylA
2004-05-18 06:13:14 51°13.679 2°55.762 14.8579 3.287454 26.017897 46.445623
2004-05-18 06:14:12 51°13.689 2°55.749 15.018358 3.028535 23.69011 48.501896
2004-05-18 06:15:13 51°13.74 2°55.734 15.337231 2.868443 22.262439 50.52446
2004-05-18 06:16:13 51°13.808 2°55.661 15.035318 2.388484 18.095918 53.794272
2004-05-18 06:17:13 51°13.868 2°55.613 14.841943 3.02285 23.616105 48.805281
2004-05-18 06:18:13 51°13.926 2°55.581 14.730089 3.237219 25.548622 46.378204
2004-05-18 06:19:12 51°13.991 2°55.545 14.735505 3.39731 27.005125 46.0074
2004-05-18 06:20:13 51°14.066 2°55.477 14.764979 3.321261 26.309423 44.760153
2004-05-18 06:21:13 51°14.205 2°55.348 14.739217 3.388777 26.90818 44.423059
2004-05-18 06:22:13 51°14.335 2°55.132 14.72428 3.478739 27.726808 42.973554
2004-05-18 06:23:20 51°14.424 2°54.783 14.571616 3.550592 28.391583 43.310648
2004-05-18 06:24:20 51°14.386 2°54.419 14.371858 3.746277 30.320842 39.130683
2004-05-18 06:25:21 51°14.309 2°54.066 14.234984 3.780953 30.748514 37.276665
2004-05-18 06:26:20 51°14.193 2°53.741 14.151686 3.794234 30.949518 34.377657
2004-05-18 06:27:20 51°14.074 2°53.406 14.113921 3.792443 30.980862 33.130409
2004-05-18 06:28:20 51°13.976 2°53.054 14.066388 3.785277 30.943826 32.928153
2004-05-18 06:29:21 51°13.867 2°52.697 14.018336 3.779375 30.928038 31.883161
2004-05-18 06:30:21 51°13.755 2°52.344 13.989064 3.78981 31.054371 31.175264
2004-05-18 06:31:21 51°13.626 2°52.005 13.977184 3.78844 31.073268 30.366238
2004-05-18 06:32:20 51°13.501 2°51.668 13.967068 3.796556 31.154748 30.298819
2004-05-18 06:33:21 51°13.369 2°51.321 13.977272 3.795291 31.14073 29.860597
2004-05-18 06:34:20 51°13.242 2°50.986 13.983058 3.793815 31.119854 30.467366
2004-05-18 06:35:21 51°13.107 2°50.64 13.977537 3.802142 31.195238 30.737042
2004-05-18 06:36:24 51°12.971 2°50.27 13.987518 3.79919 31.170152 30.80446
2004-05-18 06:37:25 51°12.841 2°49.911 13.992067 3.799401 31.16219 30.534785
2004-05-18 06:38:25 51°12.712 2°49.558 13.982749 3.804144 31.21352 31.040426
2004-05-18 06:39:25 51°12.584 2°49.208 13.96243 3.813946 31.315451 30.973007
2004-05-18 06:40:24 51°12.457 2°48.865 13.94891 3.821219 31.396239 30.568494
2004-05-18 06:41:25 51°12.326 2°48.509 13.935697 3.822379 31.407465 31.040426
2004-05-18 06:42:25 51°12.208 2°48.147 13.907318 3.827017 31.46612 30.534785
2004-05-18 06:43:25 51°12.093 2°47.78 13.90409 3.831128 31.524406 29.826888
2004-05-18 06:44:24 51°11.979 2°47.418 13.891089 3.833657 31.554476 30.197691
2004-05-18 06:45:25 51°11.862 2°47.045 13.864859 3.840614 31.63206 30.130272
2004-05-18 06:46:25 51°11.748 2°46.677 13.83043 3.850522 31.743766 29.017862
2004-05-18 06:47:24 51°11.641 2°46.311 13.801032 3.862961 31.885261 28.54593
2004-05-18 06:48:24 51°11.542 2°45.932 13.791466 3.872342 31.989359 28.343674
2004-05-18 06:49:25 51°11.44 2°45.549 13.76657 3.878456 32.056484 28.242546
2004-05-18 06:50:26 51°11.338 2°45.167 13.753011 3.886994 32.15178 27.568358
2004-05-18 06:51:25 51°11.24 2°44.796 13.734395 3.89353 32.230668 27.972871
2004-05-18 06:52:24 51°11.143 2°44.424 13.710055 3.900382 32.308711 28.107708
2004-05-18 06:53:25 51°11.066 2°44.028 13.693247 3.909764 32.412807 28.073999
2004-05-18 06:54:25 51°10.997 2°43.634 13.67812 3.916405 32.494315 27.602067
2004-05-18 06:55:26 51°10.919 2°43.235 13.663833 3.920411 32.541779 27.43352
2004-05-18 06:56:24 51°10.846 2°42.855 13.643639 3.925788 32.60327 27.972871
2004-05-18 06:57:26 51°10.768 2°42.448 13.60692 3.930005 32.653425 27.534648
2004-05-18 06:58:24 51°10.696 2°42.068 13.573514 3.935908 32.744861 28.040289
2004-05-18 06:59:26 51°10.62 2°41.662 13.533378 3.941496 32.82963 28.175127
2004-05-18 07:00:24 51°10.55 2°41.283 13.505139 3.945397 32.894276 28.478512
2004-05-18 07:01:25 51°10.476 2°40.884 13.466786 3.953198 32.996005 27.972871
2004-05-18 07:02:25 51°10.404 2°40.492 13.446845 3.949825 32.99119 28.309965
2004-05-18 07:03:26 51°10.331 2°40.096 13.415051 3.955624 33.062519 28.242546
2004-05-18 07:04:25 51°10.261 2°39.716 13.349769 3.960579 33.148821 28.57964
2004-05-18 07:05:25 51°10.185 2°39.332 13.312219 3.981242 33.397754 29.590922
2004-05-18 07:06:24 51°10.099 2°38.961 13.286074 3.986725 33.469379 29.11899
2004-05-18 07:07:24 51°10.013 2°38.582 13.267061 3.994105 33.564337 28.512221
2004-05-18 07:08:26 51°9.924 2°38.188 13.273087 3.996002 33.586214 28.647059
2004-05-18 07:09:31 51°9.839 2°37.77 13.271882 3.999376 33.615125 28.916734
2004-05-18 07:10:32 51°9.759 2°37.377 13.268043 4.005174 33.674286 28.647059
2004-05-18 07:11:32 51°9.679 2°36.99 13.261347 4.010973 33.728689 28.815606
2004-05-18 07:12:31 51°9.602 2°36.608 13.2684 4.014874 33.770089 29.11899
2004-05-18 07:13:32 51°9.529 2°36.252 13.273399 4.019829 33.807004 28.781896
2004-05-18 07:14:31 51°9.492 2°36.043 13.253936 4.027209 33.882463 28.781896
2004-05-18 07:15:31 51°9.464 2°35.894 13.244559 4.029528 33.920069 29.422375
2004-05-18 07:16:32 51°9.45 2°35.813 13.238576 4.031426 33.942032 29.287537
2004-05-18 07:17:31 51°9.444 2°35.727 13.232904 4.03364 33.970424 30.163982
2004-05-18 07:18:32 51°9.443 2°35.632 13.231921 4.034905 33.984387 29.456084
2004-05-18 07:19:32 51°9.446 2°35.541 13.230045 4.035327 33.990422 29.590922
2004-05-18 07:20:32 51°9.45 2°35.453 13.220487 4.035327 33.995254 30.197691
2004-05-18 07:21:32 51°9.456 2°35.367 13.216288 4.035854 34.004355 29.860597
2004-05-18 07:22:32 51°9.463 2°35.283 13.205342 4.03596 34.012946 29.658341
2004-05-18 07:23:32 51°9.47 2°35.2 13.202483 3.983669 33.52701 29.220118
2004-05-18 07:24:32 51°9.477 2°35.117 13.201098 3.991048 33.596986 29.220118
2004-05-18 07:25:32 51°9.485 2°35.034 13.204895 3.922842 32.959338 29.523503
2004-05-18 07:26:32 51°9.495 2°34.953 13.209051 3.952569 33.2332 28.815606
2004-05-18 07:27:32 51°9.508 2°34.878 13.209721 3.964587 33.34455 27.871742
2004-05-18 07:28:32 51°9.523 2°34.809 13.213429 3.918941 32.915458 27.602067
2004-05-18 07:29:32 51°9.54 2°34.75 13.245363 3.953307 33.232019 27.669486
2004-05-18 07:30:32 51°9.561 2°34.71 13.22875 3.994527 33.598946 27.669486
2004-05-18 07:31:31 51°9.581 2°34.683 13.254382 3.916622 32.867722 27.770614
2004-05-18 07:32:30 51°9.602 2°34.665 13.251927 3.923157 32.912171 27.399811
2004-05-18 07:33:32 51°9.617 2°34.652 13.245765 3.970806 33.362246 27.197554
2004-05-18 07:34:32 51°9.642 2°34.654 13.254516 3.953939 33.209629 27.366101
2004-05-18 07:35:37 51°9.799 2°34.779 13.154433 4.051985 34.121464 26.388529
2004-05-18 07:36:38 51°9.96 2°34.926 13.169813 4.051353 34.19184 26.152563
2004-05-18 07:37:36 51°9.969 2°35.036 13.177367 4.051459 34.179624 26.826751
2004-05-18 07:38:38 51°9.956 2°35.031 13.169679 4.051248 34.181113 26.961589
2004-05-18 07:39:44 51°9.94 2°35.016 13.164493 4.050721 34.196314 28.242546
2004-05-18 07:40:45 51°9.924 2°35.001 13.170617 4.050721 34.190748 28.377383
2004-05-18 07:41:44 51°9.906 2°34.985 13.170081 4.050932 34.195518 29.422375
2004-05-18 07:42:44 51°9.888 2°34.97 13.178261 4.051775 34.193727 29.422375
2004-05-18 07:43:44 51°9.868 2°34.955 13.181971 4.052724 34.197103 30.602204
2004-05-18 07:44:44 51°9.849 2°34.941 13.183848 4.053146 34.19899 30.433657
2004-05-18 07:45:44 51°9.829 2°34.925 13.185993 4.05304 34.197997 30.2314
2004-05-18 07:46:45 51°9.81 2°34.911 13.191848 4.053673 34.196307 29.624631
2004-05-18 07:47:44 51°9.791 2°34.897 13.197076 4.053251 34.186775 29.489794
2004-05-18 07:48:45 51°9.771 2°34.882 13.20293 4.052513 34.18052 29.186409
2004-05-18 07:49:44 51°9.752 2°34.868 13.203376 4.049139 34.141118 28.343674
2004-05-18 07:50:44 51°9.733 2°34.854 13.201902 4.049982 34.153916 28.141418
2004-05-18 07:51:44 51°9.714 2°34.837 13.224596 4.048928 34.137745 27.871742
2004-05-18 07:52:45 51°9.693 2°34.817 13.213786 4.052723 34.160287 27.568358
2004-05-18 07:53:44 51°9.671 2°34.795 13.236253 4.049349 34.129925 27.905452
2004-05-18 07:54:45 51°9.649 2°34.769 13.244693 4.041442 34.040321 26.826751
2004-05-18 07:55:44 51°9.627 2°34.743 13.249382 4.034167 33.968483 26.422238
2004-05-18 07:56:44 51°9.604 2°34.716 13.250766 4.031004 33.931871 26.2874
2004-05-18 07:57:45 51°9.582 2°34.689 13.254204 4.031004 33.929117 25.984016
2004-05-18 07:58:44 51°9.561 2°34.663 13.258891 4.025522 33.878993 25.714341
2004-05-18 07:59:44 51°9.541 2°34.636 13.264159 4.021937 33.840519 25.613212
2004-05-18 08:00:45 51°9.521 2°34.611 13.277327 4.020461 33.818427 25.410956
2004-05-18 08:01:49 51°9.507 2°34.686 13.276657 4.026154 33.858829 26.219982
2004-05-18 08:02:50 51°9.653 2°34.81 13.28594 4.018669 33.79612 25.276118
2004-05-18 08:03:48 51°9.829 2°34.963 13.263847 4.021621 33.819026 24.298546
2004-05-18 08:04:49 51°10.01 2°35.145 13.209899 4.040177 34.018067 24.871606
2004-05-18 08:05:55 51°10.204 2°35.344 13.176652 4.044711 34.114689 25.714341
2004-05-18 08:06:56 51°10.385 2°35.527 13.169321 4.030162 33.995703 25.242409
2004-05-18 08:07:57 51°10.562 2°35.709 13.187021 4.023836 33.92649 24.871606
2004-05-18 08:08:56 51°10.734 2°35.886 13.20637 4.013398 33.815917 25.242409
2004-05-18 08:09:56 51°10.908 2°36.067 13.219772 4.009919 33.770166 25.073862
2004-05-18 08:10:56 51°11.082 2°36.246 13.233038 4.001169 33.674267 25.410956
2004-05-18 08:11:56 51°11.257 2°36.424 13.247372 3.998322 33.633199 25.242409
2004-05-18 08:13:01 51°11.445 2°36.618 13.259918 3.990837 33.552066 25.2087
2004-05-18 08:14:02 51°11.622 2°36.801 13.274203 3.985038 33.489537 25.242409
2004-05-18 08:15:08 51°11.812 2°36.998 13.292723 3.98177 33.443304 25.74805
2004-05-18 08:16:12 51°11.996 2°37.188 13.28478 3.973231 33.353851 27.197554
2004-05-18 08:17:13 51°12.171 2°37.372 13.252284 3.961002 33.259599 28.781896
2004-05-18 08:18:13 51°12.343 2°37.552 13.248935 3.946982 33.148509 27.939161
2004-05-18 08:19:12 51°12.516 2°37.721 13.242014 3.932434 33.01835 26.961589
2004-05-18 08:20:14 51°12.705 2°37.881 13.254561 3.925582 32.946869 26.759332
2004-05-18 08:21:12 51°12.885 2°38.024 13.284646 3.927058 32.938629 26.219982
2004-05-18 08:22:21 51°13.103 2°38.183 13.267195 3.92885 32.952714 25.410956
2004-05-18 08:23:21 51°13.294 2°38.319 13.251346 3.929377 32.971675 25.781759
2004-05-18 08:24:20 51°13.482 2°38.453 13.268802 3.93275 33.006578 25.849178
2004-05-18 08:25:21 51°13.678 2°38.584 13.254114 3.932645 32.9989 25.74805
2004-05-18 08:26:21 51°13.875 2°38.702 13.209497 3.936862 33.063151 26.152563
2004-05-18 08:27:21 51°14.079 2°38.672 13.167175 3.94266 33.156473 27.096426
2004-05-18 08:28:21 51°14.215 2°38.397 13.105096 3.947826 33.238689 26.961589
2004-05-18 08:29:25 51°14.117 2°38.029 13.170483 3.950673 33.270828 26.624494
2004-05-18 08:30:24 51°13.987 2°37.688 13.075333 3.951622 33.296 27.130136
2004-05-18 08:31:24 51°13.857 2°37.336 13.149604 3.950146 33.311979 27.871742
2004-05-18 08:32:26 51°13.739 2°36.962 13.098831 3.954678 33.299641 26.590785
2004-05-18 08:33:33 51°13.616 2°36.558 13.047885 3.956366 33.387491 27.635777
2004-05-18 08:34:42 51°13.489 2°36.141 13.094535 3.956893 33.403352 27.635777
2004-05-18 08:35:42 51°13.379 2°35.777 13.085225 3.958791 33.391924 27.399811
2004-05-18 08:36:42 51°13.27 2°35.415 13.10071 3.95995 33.400109 27.399811
2004-05-18 08:37:46 51°13.152 2°35.027 13.124289 3.96132 33.397347 27.736905
2004-05-18 08:38:52 51°13.029 2°34.627 13.150051 3.965115 33.41942 27.804324
2004-05-18 08:39:52 51°12.917 2°34.268 13.168606 3.969332 33.425717 28.141418
2004-05-18 08:40:52 51°12.804 2°33.91 13.198238 3.972599 33.443492 28.54593
2004-05-18 08:41:52 51°12.69 2°33.556 13.188585 3.975973 33.461567 28.411093
2004-05-18 08:42:52 51°12.578 2°33.205 13.165879 3.975235 33.476407 28.411093
2004-05-18 08:43:52 51°12.465 2°32.855 13.174775 3.973865 33.472383 29.085281
2004-05-18 08:44:52 51°12.366 2°32.496 13.174998 3.975341 33.476717 28.377383
2004-05-18 08:45:57 51°12.262 2°32.107 13.164359 3.984512 33.569029 28.00658
2004-05-18 08:46:56 51°12.167 2°31.753 13.15184 3.990943 33.637003 27.703195
2004-05-18 08:47:56 51°12.07 2°31.392 13.076541 3.996531 33.721111 27.736905
2004-05-18 08:49:02 51°11.963 2°30.995 13.041929 4.002225 33.836059 27.568358
2004-05-18 08:50:02 51°11.865 2°30.633 12.943096 4.004967 33.920779 27.096426
2004-05-18 08:51:02 51°11.768 2°30.269 12.948613 4.006022 33.951577 27.298683
2004-05-18 08:52:06 51°11.663 2°29.88 12.957269 4.007709 33.978659 26.793042
2004-05-18 08:53:06 51°11.566 2°29.513 12.951528 4.009079 33.982582 26.557076
2004-05-18 08:54:10 51°11.462 2°29.122 12.897822 4.010977 34.024215 26.455947
2004-05-18 08:55:08 51°11.368 2°28.767 12.808484 4.011083 34.086672 26.152563
2004-05-18 08:56:09 51°11.269 2°28.394 12.756866 4.009924 34.126821 25.74805
2004-05-18 08:57:16 51°11.192 2°27.97 12.716641 4.008133 34.160382 25.377247
2004-05-18 08:58:15 51°11.129 2°27.596 12.638642 4.006236 34.203637 25.242409
2004-05-18 08:59:16 51°11.063 2°27.213 12.564295 4.003707 34.238194 25.377247
2004-05-18 09:00:17 51°11.042 2°26.823 12.521607 4.001704 34.270115 25.276118
2004-05-18 09:01:16 51°11.031 2°26.451 12.485801 4.000651 34.302683 25.377247
2004-05-18 09:02:16 51°11.038 2°26.081 12.439311 4.001916 34.343294 25.073862
2004-05-18 09:03:16 51°11.099 2°25.733 12.430633 4.000125 34.391846 25.377247
2004-05-18 09:04:17 51°11.209 2°25.426 12.392109 4.005185 34.41964 24.703059
2004-05-18 09:05:16 51°11.399 2°25.263 12.277448 4.000336 34.43042 24.905315
2004-05-18 09:06:17 51°11.609 2°25.212 12.254247 3.988425 34.406351 25.073862
2004-05-18 09:07:16 51°11.802 2°25.333 12.285467 3.986316 34.404748 25.2087
2004-05-18 09:08:17 51°12 2°25.468 12.380485 3.989478 34.374834 24.433383
2004-05-18 09:09:16 51°12.189 2°25.611 12.27627 3.993168 34.380185 24.163708
2004-05-18 09:10:16 51°12.381 2°25.76 12.246905 3.984524 34.368797 25.242409
2004-05-18 09:11:17 51°12.574 2°25.909 12.276632 3.982521 34.35167 25.309828
2004-05-18 09:12:17 51°12.764 2°26.053 12.344422 3.985683 34.346942 24.804187
2004-05-18 09:13:17 51°12.954 2°26.197 12.375825 3.989689 34.335301 24.770477
2004-05-18 09:14:17 51°13.057 2°26.306 12.386998 3.990532 34.326947 23.792905
2004-05-18 09:15:16 51°13.084 2°26.381 12.412052 3.990742 34.319677 24.028871
2004-05-18 09:16:16 51°13.075 2°26.398 12.483046 3.994537 34.316805 24.06258
2004-05-18 09:17:17 51°13.056 2°26.396 12.494517 3.998543 34.30457 23.658067
2004-05-18 09:18:17 51°13.035 2°26.393 12.486253 3.999175 34.304929 23.590648
2004-05-18 09:19:17 51°13.012 2°26.392 12.498807 3.99907 34.30748 23.961452
2004-05-18 09:20:16 51°12.987 2°26.417 12.528603 4.000545 34.301674 24.264836
2004-05-18 09:21:17 51°12.974 2°26.471 12.533748 4.001389 34.30761 24.129999
2004-05-18 09:22:16 51°12.968 2°26.513 12.597444 4.004867 34.294664 23.759195
2004-05-18 09:23:16 51°12.965 2°26.553 12.66833 4.009611 34.294552 23.388392
2004-05-18 09:24:16 51°12.963 2°26.594 12.700391 4.015514 34.291353 23.118717
2004-05-18 09:25:17 51°12.958 2°26.637 12.750614 4.018254 34.287759 23.017589
2004-05-18 09:26:17 51°12.952 2°26.68 12.762174 4.022049 34.288561 22.983879
2004-05-18 09:27:17 51°12.945 2°26.726 12.742696 4.014353 34.206171 22.91646
2004-05-18 09:28:16 51°12.937 2°26.773 12.745305 4.008239 34.177578 22.983879
2004-05-18 09:29:17 51°12.929 2°26.822 12.758396 4.021838 34.290086 22.95017
2004-05-18 09:30:17 51°12.922 2°26.871 12.756686 4.022893 34.292349 23.017589
2004-05-18 09:31:17 51°12.916 2°26.921 12.760285 4.02342 34.298778 23.186136
2004-05-18 09:32:17 51°12.908 2°26.97 12.749669 4.023209 34.301717 22.95017
2004-05-18 09:33:16 51°12.9 2°27.02 12.742381 4.023104 34.30142 22.983879
2004-05-18 09:34:16 51°12.892 2°27.071 12.763118 4.022787 34.30477 22.95017
2004-05-18 09:35:17 51°12.887 2°27.125 12.787806 4.025212 34.301706 22.95017
2004-05-18 09:36:17 51°12.883 2°27.179 12.813113 4.027425 34.296646 22.95017
2004-05-18 09:37:17 51°12.878 2°27.231 12.80736 4.028585 34.296385 23.017589
2004-05-18 09:38:17 51°12.871 2°27.275 12.820259 4.028269 34.2962 22.91646
2004-05-18 09:39:17 51°12.864 2°27.314 12.792751 4.030377 34.292268 22.849042
2004-05-18 09:40:17 51°12.857 2°27.348 12.773372 4.026688 34.298096 22.95017
2004-05-18 09:41:17 51°12.849 2°27.381 12.739546 4.02479 34.306169 23.051298
2004-05-18 09:42:16 51°12.843 2°27.41 12.741661 4.021417 34.300204 22.882751
2004-05-18 09:43:17 51°12.839 2°27.439 12.730997 4.022682 34.2967 22.882751
2004-05-18 09:44:17 51°12.835 2°27.465 12.712275 4.022366 34.302169 22.983879
2004-05-18 09:45:16 51°12.832 2°27.49 12.710565 4.019836 34.309898 22.983879
2004-05-18 09:46:17 51°12.829 2°27.517 12.705884 4.01952 34.306885 23.354683
2004-05-18 09:47:16 51°12.853 2°27.579 12.686749 4.019098 34.30782 23.48952
2004-05-18 09:48:25 51°13.034 2°27.747 12.613674 4.0172 34.307433 23.759195
2004-05-18 09:49:25 51°13.231 2°27.947 12.609436 4.008241 34.314117 23.354683
2004-05-18 09:50:25 51°13.426 2°28.153 12.740401 4.009926 34.264265 22.95017
2004-05-18 09:51:24 51°13.616 2°28.354 12.856918 4.019413 34.219783 23.051298
2004-05-18 09:52:24 51°13.809 2°28.557 12.772832 4.022153 34.207844 23.320973
2004-05-18 09:53:24 51°14.002 2°28.76 12.674275 4.010242 34.197348 23.017589
2004-05-18 09:54:24 51°14.196 2°28.962 12.706199 4.000859 34.158048 23.219845
2004-05-18 09:55:24 51°14.39 2°29.165 12.655718 3.998118 34.130522 23.287264
2004-05-18 09:56:24 51°14.584 2°29.369 12.74499 3.993796 34.076684 23.725486
2004-05-18 09:57:24 51°14.775 2°29.58 12.811136 3.994533 34.035257 23.725486
2004-05-18 09:58:24 51°14.965 2°29.795 12.802416 3.994532 33.98835 23.759195
2004-05-18 09:59:25 51°15.158 2°30.013 12.854223 3.989683 33.925563 23.455811
2004-05-18 10:00:24 51°15.344 2°30.23 12.87515 3.989366 33.871046 23.826614
2004-05-18 10:01:25 51°15.536 2°30.454 12.973456 3.987362 33.819458 23.995161
2004-05-18 10:02:25 51°15.726 2°30.674 13.00806 3.987994 33.753506 23.995161
2004-05-18 10:03:25 51°15.915 2°30.894 13.035971 3.984831 33.70848 24.096289
2004-05-18 10:04:24 51°16.102 2°31.11 13.042824 3.98346 33.667341 24.096289
2004-05-18 10:05:24 51°16.288 2°31.332 12.936367 3.981457 33.65945 24.736768
2004-05-18 10:06:24 51°16.473 2°31.552 12.780657 3.971128 33.737794 25.276118
2004-05-18 10:07:24 51°16.659 2°31.771 12.80381 3.964698 33.714956 25.309828
2004-05-18 10:08:25 51°16.847 2°31.993 12.819675 3.963222 33.688482 25.343537
2004-05-18 10:09:25 51°17.034 2°32.215 12.858939 3.965224 33.670091 25.478375
2004-05-18 10:10:25 51°17.223 2°32.439 12.864957 3.966806 33.677461 25.276118
2004-05-18 10:11:24 51°17.408 2°32.658 12.887452 3.964486 33.650662 25.17499
2004-05-18 10:12:25 51°17.599 2°32.884 12.890999 3.964275 33.618304 25.309828
2004-05-18 10:13:25 51°17.787 2°33.108 12.879057 3.960164 33.589059 25.17499
2004-05-18 10:14:24 51°17.972 2°33.331 12.878877 3.956685 33.569234 25.377247
2004-05-18 10:15:25 51°18.164 2°33.564 12.893243 3.958266 33.573175 25.276118
2004-05-18 10:16:25 51°18.354 2°33.794 12.872816 3.961745 33.588174 25.343537
2004-05-18 10:17:24 51°18.542 2°34.017 12.801607 3.958056 33.592544 25.377247
2004-05-18 10:18:24 51°18.735 2°34.245 12.759745 3.952891 33.593999 26.085144
2004-05-18 10:19:24 51°18.927 2°34.472 12.685579 3.952892 33.653524 25.714341
2004-05-18 10:20:25 51°19.121 2°34.703 12.661709 3.955528 33.715377 25.17499
2004-05-18 10:21:25 51°19.311 2°34.929 12.615837 3.957742 33.769175 24.703059
2004-05-18 10:22:24 51°19.498 2°35.148 12.564386 3.957637 33.821272 24.433383
2004-05-18 10:23:24 51°19.673 2°35.36 12.556265 3.95574 33.828386 23.624358
2004-05-18 10:24:24 51°19.708 2°35.481 12.565423 3.953316 33.812961 23.759195
2004-05-18 10:25:24 51°19.702 2°35.513 12.577872 3.954053 33.801096 24.028871
2004-05-18 10:26:25 51°19.689 2°35.54 12.570114 3.953737 33.801579 24.028871
2004-05-18 10:27:26 51°19.664 2°35.561 12.584998 3.953421 33.793665 24.231127
2004-05-18 10:28:24 51°19.626 2°35.578 12.582969 3.954053 33.790603 24.332255
2004-05-18 10:29:26 51°19.582 2°35.6 12.603981 3.953526 33.789075 24.264836
2004-05-18 10:30:24 51°19.542 2°35.625 12.617145 3.955739 33.782911 24.197418
2004-05-18 10:31:26 51°19.501 2°35.65 12.619624 3.957004 33.791469 24.129999
2004-05-18 10:32:26 51°19.462 2°35.673 12.604883 3.956794 33.794352 24.028871
2004-05-18 10:33:25 51°19.424 2°35.693 12.61169 3.956267 33.796319 24.365965
2004-05-18 10:34:26 51°19.387 2°35.709 12.601907 3.956267 33.794921 24.163708
2004-05-18 10:35:26 51°19.351 2°35.718 12.580804 3.956056 33.798505 24.231127
2004-05-18 10:36:26 51°19.316 2°35.722 12.602313 3.956478 33.799727 24.467093
2004-05-18 10:37:26 51°19.283 2°35.719 12.608309 3.957215 33.803263 24.096289
2004-05-18 10:38:26 51°19.246 2°35.711 12.628052 3.958586 33.809329 24.264836
2004-05-18 10:39:26 51°19.158 2°35.799 12.660448 3.962591 33.817429 24.568221
2004-05-18 10:40:25 51°19.097 2°36.124 12.62679 3.961221 33.809272 25.040153
2004-05-18 10:41:26 51°19.159 2°36.51 12.605694 3.961432 33.811279 24.096289
2004-05-18 10:42:26 51°19.225 2°36.887 12.743776 3.960272 33.776513 24.129999
2004-05-18 10:43:26 51°19.29 2°37.261 12.766222 3.959217 33.698318 23.995161
2004-05-18 10:44:26 51°19.353 2°37.635 12.737207 3.955843 33.649661 24.163708
2004-05-18 10:45:24 51°19.414 2°37.999 12.719342 3.950678 33.630424 23.995161
2004-05-18 10:46:25 51°19.483 2°38.371 13.072468 3.947198 33.538668 24.096289
2004-05-18 10:47:26 51°19.552 2°38.74 13.0662 3.924636 33.112695 24.905315
2004-05-18 10:48:24 51°19.623 2°39.097 13.198774 3.925057 33.085602 25.107571
2004-05-18 10:49:26 51°19.679 2°39.476 13.104246 3.920208 33.02052 25.410956
2004-05-18 10:50:26 51°19.729 2°39.85 13.165163 3.918204 32.974847 25.478375
2004-05-18 10:51:26 51°19.78 2°40.225 13.097846 3.91831 32.957055 25.882888
2004-05-18 10:52:25 51°19.83 2°40.597 12.888799 3.913567 32.989088 25.646922
2004-05-18 10:53:26 51°19.877 2°40.989 12.738152 3.917787 33.270398 25.950306
2004-05-18 10:54:26 51°19.923 2°41.372 13.122097 3.912513 32.979184 25.849178
2004-05-18 10:55:26 51°19.969 2°41.757 13.146921 3.910827 32.985538 26.051435
2004-05-18 10:56:26 51°20.018 2°42.138 13.56987 3.9123 32.857297 25.950306
2004-05-18 10:57:26 51°20.072 2°42.515 13.719633 3.920096 32.576044 26.186272
2004-05-18 10:58:26 51°20.119 2°42.891 13.313022 3.908923 32.57386 26.253691
2004-05-18 10:59:25 51°20.158 2°43.265 13.677144 3.899224 32.380236 26.590785
2004-05-18 11:00:26 51°20.199 2°43.653 13.668669 3.900595 32.439752 27.163845
2004-05-18 11:01:26 51°20.241 2°44.036 13.597993 3.901437 32.390328 27.029007
2004-05-18 11:02:26 51°20.281 2°44.418 13.486588 3.905548 32.391356 27.130136
2004-05-18 11:03:26 51°20.324 2°44.803 13.544936 3.904073 32.432258 27.399811
2004-05-18 11:04:25 51°20.364 2°45.18 13.304859 3.898277 32.471748 27.568358
2004-05-18 11:05:32 51°20.403 2°45.542 13.314405 3.893324 32.548282 27.500939
2004-05-18 11:06:32 51°20.419 2°45.681 13.401911 3.893113 32.554872 27.332392
2004-05-18 11:07:32 51°20.43 2°45.722 13.03951 3.898383 32.540181 27.399811
2004-05-18 11:08:32 51°20.419 2°45.81 13.070677 3.894384 32.91565 31.242683
2004-05-18 11:09:32 51°20.398 2°45.9 13.180406 3.884472 32.644022 28.916734
2004-05-18 11:10:33 51°20.375 2°45.981 13.185993 3.886369 32.618671 27.804324
2004-05-18 11:11:37 51°20.35 2°46.059 13.226919 3.886053 32.639577 27.703195
2004-05-18 11:12:48 51°20.319 2°46.127 13.044123 3.887846 32.731537 28.478512
2004-05-18 11:13:48 51°20.29 2°46.174 13.094982 3.89122 32.821383 30.501076
2004-05-18 11:14:48 51°20.26 2°46.219 13.21459 3.886159 32.681751 29.456084
2004-05-18 11:15:48 51°20.231 2°46.265 13.217449 3.886897 32.668718 28.276255
2004-05-18 11:16:48 51°20.201 2°46.311 13.264293 3.888899 32.613192 27.871742
2004-05-18 11:17:48 51°20.171 2°46.358 13.151258 3.890902 32.689611 28.377383
2004-05-18 11:18:48 51°20.139 2°46.41 13.119547 3.888373 32.705158 28.377383
2004-05-18 11:19:48 51°20.108 2°46.452 13.135069 3.890587 32.740568 29.11899
2004-05-18 11:20:48 51°20.073 2°46.496 13.045422 3.889532 32.707369 28.343674
2004-05-18 11:21:48 51°19.985 2°46.596 13.146071 3.889744 32.741997 30.197691
2004-05-18 11:22:54 51°19.803 2°46.863 13.791156 3.886474 32.595829 28.57964
2004-05-18 11:23:55 51°19.652 2°47.146 13.595505 3.884149 32.176958 29.186409
2004-05-18 11:24:54 51°19.512 2°47.434 13.574314 3.878353 32.204646 29.69205
2004-05-18 11:25:55 51°19.37 2°47.74 13.610695 3.88004 32.225418 29.961725
2004-05-18 11:27:03 51°19.211 2°48.081 13.614159 3.881094 32.242287 30.2314
2004-05-18 11:28:02 51°19.073 2°48.376 13.531021 3.871502 32.209137 30.062853
2004-05-18 11:29:03 51°18.935 2°48.689 13.296605 3.863809 32.201312 30.332529
2004-05-18 11:30:03 51°18.804 2°49.008 13.371567 3.859277 32.236575 30.399947
2004-05-18 11:31:02 51°18.674 2°49.324 13.273578 3.858013 32.259366 29.388665
2004-05-18 11:32:03 51°18.539 2°49.653 13.493351 3.854429 32.206443 30.163982
2004-05-18 11:33:02 51°18.41 2°49.971 13.658419 3.859591 32.065264 30.939298
2004-05-18 11:34:05 51°18.275 2°50.309 13.757841 3.868338 32.013814 32.48993
2004-05-18 11:35:06 51°18.157 2°50.603 13.696085 3.865913 31.969745 36.973281
2004-05-18 11:36:06 51°18.112 2°50.75 13.761297 3.855794 31.856215 38.456494
2004-05-18 11:37:06 51°18.117 2°50.824 13.760987 3.851472 31.832979 38.962136
2004-05-18 11:38:06 51°18.125 2°50.91 13.800899 3.851788 31.825086 34.984426
2004-05-18 11:39:06 51°18.128 2°51 13.789605 3.854423 31.827097 37.748597
2004-05-18 11:40:06 51°18.123 2°51.087 13.776804 3.852631 31.824586 38.1194
2004-05-18 11:41:05 51°18.11 2°51.164 13.810109 3.85221 31.816899 36.905862
2004-05-18 11:42:04 51°18.09 2°51.226 13.807851 3.853685 31.813333 39.231811
2004-05-18 11:43:06 51°18.064 2°51.271 13.779329 3.853053 31.815133 39.434067
2004-05-18 11:44:06 51°18.04 2°51.296 13.783714 3.851261 31.814523 37.816016
2004-05-18 11:45:06 51°18.019 2°51.301 13.756733 3.851261 31.815157 35.152973
2004-05-18 11:46:05 51°18.006 2°51.292 13.801829 3.850313 31.817862 36.636187
2004-05-18 11:47:06 51°17.999 2°51.272 13.779152 3.853369 31.821213 30.26511
2004-05-18 11:48:10 51°17.997 2°51.243 13.826402 3.852631 31.821411 30.029144
2004-05-18 11:49:10 51°18 2°51.21 13.831315 3.857901 31.824174 30.130272
2004-05-18 11:50:10 51°17.998 2°51.178 13.807851 3.857058 31.831646 30.433657
2004-05-18 11:51:10 51°17.893 2°51.186 13.85247 3.856953 31.838292 30.534785
2004-05-18 11:52:10 51°17.751 2°51.447 13.758461 3.863171 31.851652 30.905589
2004-05-18 11:53:10 51°17.607 2°51.74 13.665918 3.850735 31.86883 35.523777
2004-05-18 11:54:10 51°17.465 2°52.038 13.730007 3.852 31.898349 39.198101
2004-05-18 11:55:10 51°17.319 2°52.338 13.764532 3.863594 31.954771 40.074546
2004-05-18 11:56:10 51°17.172 2°52.635 13.809312 3.86781 31.953398 34.20911
2004-05-18 11:57:10 51°17.024 2°52.93 13.914436 3.868336 31.93086 42.164529
2004-05-18 11:58:10 51°16.877 2°53.225 14.213993 3.879718 31.867309 36.299093
2004-05-18 11:59:11 51°16.729 2°53.524 14.509858 3.900164 31.825123 31.883161
2004-05-18 12:00:11 51°16.669 2°53.707 14.622251 3.925776 31.854163 29.220118
2004-05-18 12:01:08 51°16.656 2°53.771 14.571047 3.927146 31.828696 27.46723
2004-05-18 12:02:11 51°16.636 2°53.833 14.548978 3.920716 31.810909 28.714477
2004-05-18 12:03:19 51°16.615 2°53.904 14.598885 3.918608 31.796195 27.500939
2004-05-18 12:04:19 51°16.596 2°53.977 14.591883 3.921243 31.782828 27.366101
2004-05-18 12:05:19 51°16.576 2°54.055 14.525543 3.91787 31.780848 28.444802
2004-05-18 12:06:19 51°16.555 2°54.13 14.481675 3.912495 31.781852 28.54593
2004-05-18 12:07:17 51°16.53 2°54.193 14.560145 3.910492 31.774281 27.568358
2004-05-18 12:08:19 51°16.5 2°54.248 14.673153 3.917237 31.736155 28.00658
2004-05-18 12:09:18 51°16.47 2°54.281 14.686179 3.91576 31.671666 28.54593
2004-05-18 12:10:19 51°16.443 2°54.293 14.693259 3.908487 31.60062 30.399947
2004-05-18 12:11:18 51°16.423 2°54.287 14.692647 3.900475 31.523592 29.995435
2004-05-18 12:12:18 51°16.406 2°54.273 14.614813 3.895311 31.496684 31.95058
2004-05-18 12:13:19 51°16.393 2°54.249 14.657414 3.890778 31.484638 31.141554
2004-05-18 12:14:17 51°16.317 2°54.218 14.658026 3.891306 31.505326 32.186546
2004-05-18 12:15:24 51°16.103 2°54.243 14.56067 3.896153 31.451712 32.321383
2004-05-18 12:16:24 51°15.889 2°54.266 14.517044 3.887513 31.576884 31.343811
2004-05-18 12:17:25 51°15.673 2°54.283 14.528479 3.891307 31.561251 29.759469
2004-05-18 12:18:24 51°15.464 2°54.328 14.4587 3.881504 31.487468 31.613486
2004-05-18 12:19:24 51°15.252 2°54.4 14.333734 3.875918 31.487414 29.287537
2004-05-18 12:20:25 51°15.035 2°54.472 14.316905 3.867486 31.464687 28.276255
2004-05-18 12:21:24 51°14.829 2°54.577 14.284069 3.852203 31.401362 28.377383
2004-05-18 12:22:29 51°14.626 2°54.726 14.48584 3.851253 31.303597 29.658341
2004-05-18 12:23:29 51°14.513 2°54.858 14.508631 3.850303 31.208867 30.062853
2004-05-18 12:24:30 51°14.429 2°54.978 14.526639 3.848616 31.163241 29.456084
2004-05-18 12:25:29 51°14.358 2°55.081 14.483297 3.840712 31.146055 30.568494
2004-05-18 12:26:29 51°14.299 2°55.179 14.753409 3.830909 31.013381 33.265247
2004-05-18 12:27:30 51°14.226 2°55.317 15.014792 3.750909 30.034716 38.962136
2004-05-18 12:28:29 51°14.149 2°55.424 15.140721 3.636462 28.89753 42.973554
2004-05-18 12:29:29 51°14.07 2°55.49 15.134773 3.540472 27.989643 42.602751
2004-05-18 12:30:30 51°13.978 2°55.544 15.134166 3.490745 27.562087 28.309965
2004-05-18 12:31:29 51°13.864 2°55.612 15.48978 3.483897 27.502175 30.905589
2004-05-18 12:32:29 51°13.755 2°55.696 15.526007 3.485267 27.510997 29.860597
2004-05-18 12:33:30 51°13.69 2°55.785 15.6047 3.485161 27.506917 29.523503